Time;durP1;ratioP1;P1;durP2;ratioP2;P2;SDS_P1;SDS_P2;PMS_P1;PMS_P2;Temp;Humidity;BMP_temperature;BMP_pressure;BME280_temperature;BME280_humidity;BME280_pressure;Samples;Min_cycle;Max_cycle;Signal;HPM_P1;HPM_P2
2022/01/24 00:00:55;;;;;;;17.07;8.40;;;2.20;99.90;;;;;;4964714;28;20436;-71
2022/01/24 00:03:22;;;;;;;15.07;9.07;;;2.20;99.90;;;;;;4961806;28;20054;-72
2022/01/24 00:05:48;;;;;;;16.85;7.75;;;2.20;99.90;;;;;;4959259;28;20380;-70
2022/01/24 00:08:14;;;;;;;16.02;8.75;;;2.20;99.90;;;;;;4961223;28;20035;-71
2022/01/24 00:10:40;;;;;;;16.08;7.80;;;2.20;99.90;;;;;;4956020;28;20105;-72
2022/01/24 00:13:39;;;;;;;13.45;7.15;;;2.30;99.90;;;;;;4963609;28;20818;-71
2022/01/24 00:26:46;;;;;;;13.00;7.07;;;2.30;99.90;;;;;;4961062;28;20797;-75
2022/01/24 00:26:53;;;;;;;11.85;6.72;;;2.30;99.90;;;;;;4962246;28;20041;-72
2022/01/24 00:29:22;;;;;;;11.48;6.43;;;2.30;99.90;;;;;;4963111;28;20031;-71
2022/01/24 00:31:48;;;;;;;10.82;5.85;;;2.40;99.90;;;;;;4964436;28;20035;-71
2022/01/24 00:34:15;;;;;;;12.48;6.18;;;2.40;99.90;;;;;;4966048;28;20031;-72
2022/01/24 00:36:42;;;;;;;10.23;5.80;;;2.40;99.90;;;;;;4965545;28;20860;-71
2022/01/24 00:39:08;;;;;;;13.77;6.18;;;2.40;99.90;;;;;;4964483;28;20168;-73
2022/01/24 00:47:03;;;;;;;10.02;5.60;;;2.20;99.90;;;;;;4963928;28;20507;-72
2022/01/24 00:55:03;;;;;;;10.85;5.13;;;2.20;99.90;;;;;;4965648;28;20048;-71
2022/01/24 00:57:28;;;;;;;10.38;5.47;;;2.30;99.90;;;;;;4956762;28;20033;-71
2022/01/24 00:59:54;;;;;;;8.03;4.73;;;2.30;99.90;;;;;;4967896;28;20404;-71
2022/01/24 01:02:20;;;;;;;10.80;5.63;;;2.20;99.90;;;;;;4960193;28;20026;-70
2022/01/24 01:07:29;;;;;;;11.45;5.60;;;2.10;99.90;;;;;;4959580;28;20661;-70
2022/01/24 01:18:15;;;;;;;10.25;5.35;;;2.20;99.90;;;;;;4960120;28;20097;-71
2022/01/24 01:21:09;;;;;;;11.57;5.43;;;2.20;99.90;;;;;;4964141;28;20034;-71
2022/01/24 01:23:32;;;;;;;;;;;2.20;99.90;;;;;;4960404;28;20039;-71
2022/01/24 01:26:02;;;;;;;11.35;5.75;;;2.10;99.90;;;;;;4965123;28;19906;-71
2022/01/24 01:28:30;;;;;;;12.35;5.50;;;2.10;99.90;;;;;;4954174;28;20023;-72
2022/01/24 01:31:01;;;;;;;10.23;5.97;;;2.10;99.90;;;;;;4962791;28;20055;-72
2022/01/24 01:38:45;;;;;;;11.57;5.72;;;2.10;99.90;;;;;;4958320;28;20031;-72
2022/01/24 01:52:33;;;;;;;11.80;4.88;;;2.20;99.90;;;;;;4968258;28;20041;-71
2022/01/24 01:57:33;;;;;;;10.13;4.80;;;2.20;99.90;;;;;;4957018;28;20116;-72
2022/01/24 01:59:58;;;;;;;10.00;4.95;;;2.20;99.90;;;;;;4964463;28;20019;-71
2022/01/24 02:02:24;;;;;;;8.57;5.43;;;2.20;99.90;;;;;;4956744;28;20023;-72
2022/01/24 02:04:50;;;;;;;10.20;4.73;;;2.20;99.90;;;;;;4958341;28;20039;-71
2022/01/24 02:07:16;;;;;;;8.87;4.40;;;2.20;99.90;;;;;;4960524;28;20035;-71
2022/01/24 02:09:44;;;;;;;9.43;4.00;;;2.10;99.90;;;;;;4959395;28;20360;-71
2022/01/24 02:12:11;;;;;;;8.95;5.13;;;2.10;99.90;;;;;;4958736;28;20046;-71
2022/01/24 02:14:41;;;;;;;7.57;3.95;;;2.10;99.90;;;;;;4960209;28;20499;-71
2022/01/24 02:17:14;;;;;;;6.93;4.32;;;2.10;99.90;;;;;;4966056;28;20489;-71
2022/01/24 02:22:48;;;;;;;7.75;4.00;;;2.10;99.90;;;;;;4947366;28;20035;-72
2022/01/24 02:25:33;;;;;;;7.97;4.30;;;2.00;99.90;;;;;;4962238;28;20026;-72
2022/01/24 02:28:03;;;;;;;10.77;5.40;;;2.00;99.90;;;;;;4962662;28;20043;-74
2022/01/24 02:33:14;;;;;;;11.45;4.70;;;2.10;99.90;;;;;;4962836;28;20041;-71
2022/01/24 02:35:41;;;;;;;9.82;4.75;;;2.10;99.90;;;;;;4987927;28;20102;-73
2022/01/24 02:38:24;;;;;;;;;;;2.10;99.90;;;;;;4963806;28;20033;-71
2022/01/24 02:49:14;;;;;;;12.25;4.97;;;2.10;99.90;;;;;;4964502;28;20082;-73
2022/01/24 02:54:06;;;;;;;7.43;4.47;;;2.10;99.90;;;;;;4967570;28;20029;-75
2022/01/24 02:56:32;;;;;;;10.43;4.97;;;2.20;99.90;;;;;;4966343;28;21554;-72
2022/01/24 02:58:58;;;;;;;14.50;5.20;;;2.20;99.90;;;;;;4958951;28;20031;-74
2022/01/24 03:01:24;;;;;;;14.23;5.23;;;2.20;99.90;;;;;;4964278;28;20014;-71
2022/01/24 03:03:50;;;;;;;12.15;5.28;;;2.30;99.90;;;;;;4964201;28;20483;-72
2022/01/24 03:06:15;;;;;;;9.57;4.47;;;2.20;99.90;;;;;;4965831;28;20030;-71
2022/01/24 03:08:43;;;;;;;11.13;4.47;;;2.30;99.90;;;;;;4960923;28;20027;-71
2022/01/24 03:11:09;;;;;;;10.38;4.65;;;2.10;99.90;;;;;;4961761;28;20031;-71
2022/01/24 03:13:36;;;;;;;8.00;4.87;;;2.00;99.90;;;;;;4957420;28;20038;-71
2022/01/24 03:16:04;;;;;;;13.18;5.50;;;2.00;99.90;;;;;;4961506;28;20062;-71
2022/01/24 03:18:31;;;;;;;10.02;5.55;;;2.00;99.90;;;;;;4958027;28;20519;-71
2022/01/24 03:21:04;;;;;;;11.35;5.40;;;1.90;99.90;;;;;;4963322;28;20814;-71
2022/01/24 03:23:29;;;;;;;10.38;5.15;;;1.90;99.90;;;;;;4963174;28;20791;-70
2022/01/24 03:25:55;;;;;;;10.37;5.20;;;1.80;99.90;;;;;;4962216;28;20030;-70
2022/01/24 03:28:22;;;;;;;12.63;5.37;;;1.80;99.90;;;;;;4965219;28;20531;-71
2022/01/24 03:30:49;;;;;;;8.73;4.78;;;1.70;99.90;;;;;;4959679;28;20027;-71
2022/01/24 03:33:14;;;;;;;;;;;1.70;99.90;;;;;;4961081;28;20056;-70
2022/01/24 03:35:42;;;;;;;9.93;5.20;;;1.70;99.90;;;;;;4960391;28;20348;-70
2022/01/24 03:38:08;;;;;;;10.15;5.50;;;1.70;99.90;;;;;;4965054;28;20526;-71
2022/01/24 03:40:33;;;;;;;11.70;5.40;;;1.80;99.90;;;;;;4962896;28;20023;-71
2022/01/24 03:43:00;;;;;;;12.57;5.77;;;1.70;99.90;;;;;;4963321;28;20035;-70
2022/01/24 03:45:44;;;;;;;11.38;5.57;;;1.70;99.90;;;;;;4957033;28;20061;-71
2022/01/24 03:48:26;;;;;;;12.95;5.82;;;1.70;99.90;;;;;;4966728;28;20027;-71
2022/01/24 03:50:53;;;;;;;10.00;5.80;;;1.70;99.90;;;;;;4959277;28;20030;-71
2022/01/24 03:53:19;;;;;;;12.93;6.13;;;1.70;99.90;;;;;;4964761;28;20026;-70
2022/01/24 03:55:45;;;;;;;11.77;6.37;;;1.80;99.90;;;;;;4959010;28;20027;-71
2022/01/24 03:58:10;;;;;;;15.03;6.50;;;1.80;99.90;;;;;;4966592;28;20022;-70
2022/01/24 04:00:36;;;;;;;11.00;6.37;;;1.80;99.90;;;;;;4954463;28;21447;-71
2022/01/24 04:03:02;;;;;;;12.93;6.60;;;1.80;99.90;;;;;;4961571;28;20029;-73
2022/01/24 04:05:27;;;;;;;12.37;6.27;;;1.80;99.90;;;;;;4954354;28;20058;-71
2022/01/24 04:07:53;;;;;;;14.47;6.53;;;1.80;99.90;;;;;;4963728;28;20070;-72
2022/01/24 04:10:21;;;;;;;12.53;5.97;;;1.70;99.90;;;;;;4960751;28;20046;-71
2022/01/24 04:12:50;;;;;;;11.35;6.70;;;1.80;99.90;;;;;;4958547;28;20653;-74
2022/01/24 04:15:42;;;;;;;12.00;6.32;;;1.80;99.90;;;;;;4963707;28;20018;-71
2022/01/24 04:18:31;;;;;;;11.88;6.35;;;1.80;99.90;;;;;;4960733;28;20018;-71
2022/01/24 04:23:45;;;;;;;13.00;5.93;;;1.80;99.90;;;;;;4962578;28;20138;-71
2022/01/24 04:26:11;;;;;;;10.98;5.28;;;1.80;99.90;;;;;;4965713;28;20642;-70
2022/01/24 04:28:38;;;;;;;12.67;6.17;;;1.80;99.90;;;;;;4963444;28;20033;-71
2022/01/24 04:31:03;;;;;;;15.10;7.30;;;1.70;99.90;;;;;;4961584;28;20032;-73
2022/01/24 04:33:29;;;;;;;12.17;5.97;;;1.70;99.90;;;;;;4962352;28;20035;-73
2022/01/24 04:35:55;;;;;;;11.63;6.10;;;1.70;99.90;;;;;;4962290;28;20042;-71
2022/01/24 04:38:23;;;;;;;12.37;6.70;;;1.70;99.90;;;;;;4963949;28;20483;-71
2022/01/24 04:40:49;;;;;;;11.82;5.40;;;1.70;99.90;;;;;;4961642;28;20046;-70
2022/01/24 04:46:18;;;;;;;10.32;6.20;;;1.70;99.90;;;;;;4960163;28;20118;-71
2022/01/24 04:56:41;;;;;;;12.70;6.57;;;1.70;99.90;;;;;;4956905;28;20031;-71
2022/01/24 04:59:08;;;;;;;14.48;6.20;;;1.70;99.90;;;;;;4962909;28;20026;-71
2022/01/24 05:01:35;;;;;;;15.85;6.00;;;1.70;99.90;;;;;;4955429;28;20503;-72
2022/01/24 05:04:01;;;;;;;12.27;5.78;;;1.70;99.90;;;;;;4965579;28;20089;-72
2022/01/24 05:06:27;;;;;;;14.95;6.15;;;1.70;99.90;;;;;;4958354;28;20577;-71
2022/01/24 05:08:53;;;;;;;13.05;6.07;;;1.70;99.90;;;;;;4960570;28;20093;-72
2022/01/24 05:11:48;;;;;;;14.43;7.20;;;1.70;99.90;;;;;;4960537;28;20512;-71
2022/01/24 05:24:46;;;;;;;9.20;5.20;;;1.70;99.90;;;;;;4966789;28;20023;-71
2022/01/24 05:27:14;;;;;;;9.05;5.50;;;1.70;99.90;;;;;;4962720;28;20628;-71
2022/01/24 05:29:39;;;;;;;9.70;5.45;;;1.60;99.90;;;;;;4961592;28;20031;-71
2022/01/24 05:32:08;;;;;;;7.43;4.10;;;1.60;99.90;;;;;;4958461;28;20028;-76
2022/01/24 05:34:34;;;;;;;13.55;5.68;;;1.50;99.90;;;;;;4959849;28;20018;-73
2022/01/24 05:37:00;;;;;;;13.25;6.35;;;1.50;99.90;;;;;;4959630;28;20037;-72
2022/01/24 05:39:26;;;;;;;11.32;5.85;;;1.40;99.90;;;;;;4965671;28;20628;-71
2022/01/24 05:41:53;;;;;;;12.93;6.07;;;1.40;99.90;;;;;;4961630;28;20042;-72
2022/01/24 05:44:18;;;;;;;11.48;6.38;;;1.30;99.90;;;;;;4960303;28;20023;-71
2022/01/24 05:46:44;;;;;;;12.27;6.93;;;1.30;99.90;;;;;;4960245;28;20038;-71
2022/01/24 05:49:11;;;;;;;10.83;6.47;;;1.30;99.90;;;;;;4966965;28;20034;-72
2022/01/24 05:51:37;;;;;;;;;;;1.30;99.90;;;;;;4961048;28;20345;-71
2022/01/24 05:54:03;;;;;;;14.07;6.57;;;1.30;99.90;;;;;;4967457;28;19914;-71
2022/01/24 05:56:28;;;;;;;13.80;6.43;;;1.30;99.90;;;;;;4965825;28;20026;-71
2022/01/24 05:58:55;;;;;;;13.23;6.97;;;1.30;99.90;;;;;;4958688;28;20834;-71
2022/01/24 06:01:21;;;;;;;13.18;6.97;;;1.30;99.90;;;;;;4964696;28;20023;-71
2022/01/24 06:03:50;;;;;;;17.08;7.47;;;1.30;99.90;;;;;;4959484;28;20444;-70
2022/01/24 06:06:16;;;;;;;12.35;7.30;;;1.30;99.90;;;;;;4969861;28;20669;-71
2022/01/24 06:08:42;;;;;;;14.67;7.20;;;1.40;99.90;;;;;;4962922;28;20034;-71
2022/01/24 06:11:10;;;;;;;12.70;6.18;;;1.30;99.90;;;;;;4966403;28;20027;-72
2022/01/24 06:13:37;;;;;;;13.98;6.47;;;1.30;99.90;;;;;;4961765;28;21402;-71
2022/01/24 06:16:02;;;;;;;14.30;7.40;;;1.40;99.90;;;;;;4965306;28;20030;-72
2022/01/24 06:18:28;;;;;;;12.73;7.20;;;1.30;99.90;;;;;;4962247;28;20023;-71
2022/01/24 06:20:55;;;;;;;9.77;5.27;;;1.40;99.90;;;;;;4963557;28;20015;-72
2022/01/24 06:23:21;;;;;;;9.35;5.20;;;1.40;99.90;;;;;;4963587;28;20452;-72
2022/01/24 06:25:47;;;;;;;10.65;5.10;;;1.40;99.90;;;;;;4963573;28;20035;-71
2022/01/24 06:28:13;;;;;;;10.83;4.83;;;1.40;99.90;;;;;;4967919;28;20022;-72
2022/01/24 06:30:39;;;;;;;12.90;5.70;;;1.40;99.90;;;;;;4967285;28;20266;-73
2022/01/24 06:33:07;;;;;;;8.43;5.03;;;1.40;99.90;;;;;;4962895;28;20030;-72
2022/01/24 06:35:33;;;;;;;10.48;5.50;;;1.50;99.90;;;;;;4965272;28;20026;-72
2022/01/24 06:37:58;;;;;;;9.30;4.87;;;1.50;99.90;;;;;;4964138;28;20019;-72
2022/01/24 06:40:24;;;;;;;11.23;6.60;;;1.50;99.90;;;;;;4969534;28;20157;-74
2022/01/24 06:42:50;;;;;;;10.50;5.60;;;1.50;99.90;;;;;;4960380;28;20081;-71
2022/01/24 06:45:15;;;;;;;10.93;5.70;;;1.50;99.90;;;;;;4966770;28;20139;-71
2022/01/24 06:47:42;;;;;;;16.70;6.00;;;1.50;99.90;;;;;;4958032;28;20031;-71
2022/01/24 06:50:09;;;;;;;10.52;5.85;;;1.50;99.90;;;;;;4966323;28;20022;-70
2022/01/24 06:52:36;;;;;;;10.23;5.57;;;1.50;99.90;;;;;;4961193;28;20488;-73
2022/01/24 06:55:03;;;;;;;8.15;4.72;;;1.50;99.90;;;;;;4965773;28;20037;-71
2022/01/24 06:57:29;;;;;;;9.05;4.63;;;1.50;99.90;;;;;;4965018;28;20015;-71
2022/01/24 06:59:55;;;;;;;8.57;4.67;;;1.50;99.90;;;;;;4960565;28;20090;-72
2022/01/24 07:02:21;;;;;;;7.45;4.55;;;1.50;99.90;;;;;;4965587;28;20019;-71
2022/01/24 07:04:48;;;;;;;7.80;4.00;;;1.50;99.90;;;;;;4957334;28;20031;-71
2022/01/24 07:07:14;;;;;;;7.30;4.47;;;1.50;99.90;;;;;;4968320;28;20014;-71
2022/01/24 07:09:41;;;;;;;6.80;3.67;;;1.50;99.90;;;;;;4963022;28;20068;-71
2022/01/24 07:12:07;;;;;;;;;;;1.50;99.90;;;;;;4966128;28;20541;-72
2022/01/24 07:14:34;;;;;;;8.60;4.25;;;1.50;99.90;;;;;;4962981;28;19924;-71
2022/01/24 07:19:45;;;;;;;7.40;3.88;;;1.60;99.90;;;;;;4961407;28;20058;-71
2022/01/24 07:22:10;;;;;;;8.90;4.28;;;1.70;99.90;;;;;;4965642;28;20038;-71
2022/01/24 07:24:37;;;;;;;8.17;4.57;;;1.70;99.90;;;;;;4956236;28;21402;-71
2022/01/24 07:27:03;;;;;;;7.03;3.83;;;1.70;99.90;;;;;;4973741;28;20109;-73
2022/01/24 07:29:29;;;;;;;7.27;3.80;;;1.60;99.90;;;;;;4966556;28;20117;-73
2022/01/24 07:31:55;;;;;;;7.45;4.38;;;1.70;99.90;;;;;;4964245;28;20266;-72
2022/01/24 07:34:21;;;;;;;8.75;4.40;;;1.70;99.90;;;;;;4961512;28;20078;-71
2022/01/24 07:36:48;;;;;;;8.57;4.60;;;1.70;99.90;;;;;;4963250;28;20101;-70
2022/01/24 07:39:14;;;;;;;7.50;4.25;;;1.70;99.90;;;;;;4968972;28;20030;-71
2022/01/24 07:41:47;;;;;;;9.32;4.13;;;1.70;99.90;;;;;;4958984;28;20034;-72
2022/01/24 07:44:14;;;;;;;8.65;4.53;;;1.70;99.90;;;;;;4968394;28;20037;-72
2022/01/24 07:46:41;;;;;;;7.93;3.83;;;1.70;99.90;;;;;;4958424;28;20031;-73
2022/01/24 07:49:10;;;;;;;12.40;4.85;;;1.70;99.90;;;;;;4962223;28;20040;-72
2022/01/24 07:51:36;;;;;;;9.75;4.57;;;1.80;99.90;;;;;;4961347;28;20056;-72
2022/01/24 07:54:02;;;;;;;9.23;4.22;;;1.80;99.90;;;;;;4964578;28;20597;-72
2022/01/24 07:56:28;;;;;;;10.07;4.67;;;1.80;99.90;;;;;;4966945;28;20022;-72
2022/01/24 07:58:55;;;;;;;8.67;5.53;;;1.80;99.90;;;;;;4961864;28;21180;-73
2022/01/24 08:01:20;;;;;;;;;;;1.70;99.90;;;;;;4972509;28;20022;-73
2022/01/24 08:03:47;;;;;;;10.85;5.18;;;1.80;99.90;;;;;;4961690;28;19914;-72
2022/01/24 08:06:14;;;;;;;10.23;5.38;;;1.80;99.90;;;;;;4965534;28;20031;-73
2022/01/24 08:08:39;;;;;;;12.60;6.90;;;1.80;99.90;;;;;;4961538;28;20039;-78
2022/01/24 08:11:05;;;;;;;11.57;7.00;;;1.90;99.90;;;;;;4959142;28;20511;-75
2022/01/24 08:13:31;;;;;;;12.10;5.70;;;1.90;99.90;;;;;;4965128;28;20696;-72
2022/01/24 08:15:57;;;;;;;12.77;5.57;;;1.90;99.90;;;;;;4959656;28;20372;-76
2022/01/24 08:18:24;;;;;;;12.20;6.37;;;1.90;99.90;;;;;;4962668;28;20040;-77
2022/01/24 08:20:50;;;;;;;11.02;5.68;;;1.90;99.90;;;;;;4957909;28;20031;-73
2022/01/24 08:23:19;;;;;;;14.45;6.35;;;1.90;99.90;;;;;;4960100;28;20062;-73
2022/01/24 08:25:45;;;;;;;12.32;6.32;;;1.90;99.90;;;;;;4959888;28;20528;-72
2022/01/24 08:28:11;;;;;;;15.23;6.33;;;2.00;99.90;;;;;;4968359;28;20122;-72
2022/01/24 08:30:37;;;;;;;;;;;2.00;99.90;;;;;;4963219;28;20030;-72
2022/01/24 08:33:04;;;;;;;12.85;6.60;;;2.00;99.90;;;;;;4965579;28;20260;-73
2022/01/24 08:35:29;;;;;;;11.25;6.05;;;2.00;99.90;;;;;;4965601;28;20034;-72
2022/01/24 08:37:55;;;;;;;13.07;6.53;;;2.00;99.90;;;;;;4959176;28;20124;-73
2022/01/24 08:40:25;;;;;;;13.70;6.50;;;2.00;99.90;;;;;;4964330;28;20014;-73
2022/01/24 08:43:03;;;;;;;17.02;6.95;;;2.00;99.90;;;;;;4961145;28;20488;-73
2022/01/24 08:48:12;;;;;;;14.00;7.20;;;2.00;99.90;;;;;;4964737;28;20035;-72
2022/01/24 08:50:41;;;;;;;14.98;7.25;;;2.00;99.90;;;;;;4964087;28;20037;-72
2022/01/24 08:53:08;;;;;;;15.27;7.80;;;2.00;99.90;;;;;;4966159;28;21482;-72
2022/01/24 08:55:35;;;;;;;13.68;7.43;;;2.00;99.90;;;;;;4966721;28;20093;-72
2022/01/24 08:58:02;;;;;;;14.05;6.85;;;2.10;99.90;;;;;;4968114;28;20078;-73
2022/01/24 09:00:28;;;;;;;16.33;7.47;;;2.10;99.90;;;;;;4963178;28;20030;-73
2022/01/24 09:02:55;;;;;;;17.57;7.40;;;2.00;99.90;;;;;;4969159;28;20031;-73
2022/01/24 09:05:24;;;;;;;16.88;8.10;;;2.10;99.90;;;;;;4961529;28;20081;-72
2022/01/24 09:07:51;;;;;;;15.57;8.35;;;2.10;99.90;;;;;;4960577;28;20039;-73
2022/01/24 09:10:18;;;;;;;20.70;8.18;;;2.00;99.90;;;;;;4963533;28;20027;-73
2022/01/24 09:12:43;;;;;;;;;;;2.00;99.90;;;;;;4963806;28;20122;-72
2022/01/24 09:15:09;;;;;;;18.20;8.50;;;2.00;99.90;;;;;;4964550;28;20001;-72
2022/01/24 09:17:37;;;;;;;15.13;8.70;;;2.00;99.90;;;;;;4965804;28;21064;-73
2022/01/24 09:20:05;;;;;;;21.55;9.48;;;2.00;99.90;;;;;;4957573;28;20038;-72
2022/01/24 09:22:33;;;;;;;20.23;9.50;;;2.10;99.90;;;;;;4960110;28;20014;-72
2022/01/24 09:25:00;;;;;;;19.27;9.50;;;2.00;99.90;;;;;;4964938;28;20061;-72
2022/01/24 09:27:26;;;;;;;19.02;8.93;;;2.00;99.90;;;;;;4968931;28;20081;-72
2022/01/24 09:29:53;;;;;;;19.47;9.83;;;2.10;99.90;;;;;;4966426;28;20591;-73
2022/01/24 09:32:19;;;;;;;20.55;9.48;;;2.00;99.90;;;;;;4962891;28;20058;-72
2022/01/24 09:34:46;;;;;;;20.58;10.18;;;2.00;99.90;;;;;;4967234;28;20029;-73
2022/01/24 09:37:12;;;;;;;21.77;9.90;;;1.90;99.90;;;;;;4971838;28;20031;-72
2022/01/24 09:39:38;;;;;;;21.60;11.67;;;1.90;99.90;;;;;;4970291;28;20082;-73
2022/01/24 09:42:05;;;;;;;22.63;12.27;;;1.90;99.90;;;;;;4968160;28;20028;-72
2022/01/24 09:44:31;;;;;;;23.40;9.85;;;2.00;99.90;;;;;;4971115;28;20027;-72
2022/01/24 09:46:58;;;;;;;22.23;10.18;;;2.00;99.90;;;;;;4956624;28;20030;-71
2022/01/24 09:49:24;;;;;;;22.58;11.00;;;2.00;99.90;;;;;;4965605;28;20504;-72
2022/01/24 09:51:50;;;;;;;25.27;11.00;;;2.00;99.90;;;;;;4961111;28;20031;-73
2022/01/24 09:54:17;;;;;;;23.55;11.60;;;2.00;99.90;;;;;;4973444;28;20023;-72
2022/01/24 09:56:42;;;;;;;23.33;11.15;;;2.00;99.90;;;;;;4957476;28;20049;-73
2022/01/24 09:59:08;;;;;;;24.43;12.80;;;1.90;99.90;;;;;;4977561;28;20512;-72
2022/01/24 10:01:36;;;;;;;26.43;11.97;;;1.90;99.90;;;;;;4966051;28;20113;-73
2022/01/24 10:04:07;;;;;;;27.98;13.32;;;1.90;99.90;;;;;;4965222;28;20113;-73
2022/01/24 10:06:56;;;;;;;23.20;12.30;;;2.00;99.90;;;;;;4967491;28;20050;-72
2022/01/24 10:09:36;;;;;;;26.92;12.52;;;2.00;99.90;;;;;;4969462;28;20784;-72
2022/01/24 10:17:42;;;;;;;24.30;12.60;;;2.00;99.90;;;;;;4962144;28;20467;-73
2022/01/24 10:20:26;;;;;;;;;;;2.00;99.90;;;;;;4971484;28;20042;-72
2022/01/24 10:23:07;;;;;;;23.13;11.75;;;2.00;99.90;;;;;;4961861;28;19909;-73
2022/01/24 10:25:48;;;;;;;20.20;11.13;;;2.00;99.90;;;;;;4961905;28;20388;-72
2022/01/24 10:28:30;;;;;;;20.52;10.02;;;1.90;99.90;;;;;;4962937;28;20054;-72
2022/01/24 10:31:11;;;;;;;16.85;9.60;;;1.90;99.90;;;;;;4959804;28;20027;-72
2022/01/24 10:33:52;;;;;;;22.23;11.57;;;1.90;99.90;;;;;;4966681;28;20089;-72
2022/01/24 10:36:34;;;;;;;24.58;10.88;;;2.00;99.90;;;;;;4960832;28;20027;-73
2022/01/24 10:45:15;;;;;;;24.73;12.35;;;2.00;99.90;;;;;;4964559;28;20260;-79
2022/01/24 10:47:49;;;;;;;26.08;12.23;;;2.00;99.90;;;;;;4975212;28;20026;-80
2022/01/24 10:50:25;;;;;;;25.25;12.18;;;2.00;99.90;;;;;;4966455;28;20054;-77
2022/01/24 10:52:52;;;;;;;24.67;13.85;;;2.00;99.90;;;;;;4961470;28;20517;-73
2022/01/24 10:55:27;;;;;;;22.33;12.13;;;1.90;99.90;;;;;;4966140;28;20468;-73
2022/01/24 10:58:18;;;;;;;23.05;12.40;;;1.90;99.90;;;;;;4962551;28;20031;-73
2022/01/24 11:00:45;;;;;;;28.55;12.98;;;2.10;99.90;;;;;;4967259;28;20077;-82
2022/01/24 11:03:17;;;;;;;24.98;13.23;;;2.20;99.90;;;;;;4967957;28;20023;-75
2022/01/24 11:05:43;;;;;;;28.33;12.90;;;2.30;99.90;;;;;;4966057;28;20037;-79
2022/01/24 11:08:12;;;;;;;25.55;13.88;;;2.30;99.90;;;;;;4965034;28;20045;-74
2022/01/24 11:10:49;;;;;;;25.17;11.85;;;2.60;99.90;;;;;;4969078;28;20030;-75
2022/01/24 11:13:21;;;;;;;25.30;12.60;;;2.50;99.90;;;;;;4973630;28;20117;-73
2022/01/24 11:15:55;;;;;;;24.48;12.63;;;2.50;99.90;;;;;;4987508;28;20126;-74
2022/01/24 11:18:22;;;;;;;24.80;12.93;;;2.50;99.90;;;;;;4959738;28;20034;-74
2022/01/24 11:21:00;;;;;;;29.00;14.15;;;2.50;99.90;;;;;;4964630;28;20022;-75
2022/01/24 11:23:29;;;;;;;32.25;13.63;;;2.50;99.90;;;;;;4966606;28;20027;-74
2022/01/24 11:26:01;;;;;;;24.20;12.80;;;2.50;99.90;;;;;;4962654;28;20461;-82
2022/01/24 11:28:27;;;;;;;25.45;13.05;;;2.60;99.90;;;;;;4965772;28;20105;-72
2022/01/24 11:31:14;;;;;;;32.47;14.40;;;2.50;99.90;;;;;;4964842;28;20085;-73
2022/01/24 11:33:43;;;;;;;29.38;15.13;;;2.40;99.90;;;;;;4961426;28;20030;-75
2022/01/24 11:36:11;;;;;;;32.08;14.77;;;2.20;99.90;;;;;;4961747;28;20031;-73
2022/01/24 11:38:38;;;;;;;28.05;14.38;;;2.10;99.90;;;;;;4963798;28;20022;-72
2022/01/24 11:41:33;;;;;;;32.55;14.77;;;2.10;99.90;;;;;;4967516;28;20027;-73
2022/01/24 11:44:09;;;;;;;30.63;14.27;;;2.10;99.90;;;;;;4967147;28;20393;-72
2022/01/24 11:49:20;;;;;;;34.05;16.50;;;2.20;99.90;;;;;;4965306;28;20081;-72
2022/01/24 11:51:51;;;;;;;31.60;15.93;;;2.20;99.90;;;;;;4964979;28;20018;-73
2022/01/24 11:54:44;;;;;;;33.63;15.48;;;2.20;99.90;;;;;;4963631;28;20097;-72
2022/01/24 11:57:34;;;;;;;36.67;16.42;;;2.20;99.90;;;;;;4963703;28;20031;-73
2022/01/24 12:00:05;;;;;;;29.45;15.20;;;2.10;99.90;;;;;;4962942;28;20035;-72
2022/01/24 12:02:40;;;;;;;30.92;16.02;;;2.10;99.90;;;;;;4965205;28;20816;-72
2022/01/24 12:05:08;;;;;;;33.42;15.55;;;2.10;99.90;;;;;;4964990;28;21055;-74
2022/01/24 12:07:45;;;;;;;26.80;15.07;;;2.20;99.90;;;;;;4966526;28;20081;-75
2022/01/24 12:10:36;;;;;;;27.60;14.13;;;2.30;99.90;;;;;;4965686;28;20424;-71
2022/01/24 12:13:27;;;;;;;31.83;14.77;;;2.20;99.90;;;;;;4958270;28;20813;-72
2022/01/24 12:15:59;;;;;;;33.63;15.38;;;2.20;99.90;;;;;;4964245;28;20076;-73
2022/01/24 12:18:30;;;;;;;33.42;15.82;;;2.10;99.90;;;;;;4958764;28;20481;-82
2022/01/24 12:21:16;;;;;;;30.33;14.57;;;2.10;99.90;;;;;;4955222;28;20090;-73
2022/01/24 12:23:51;;;;;;;28.20;14.57;;;2.10;99.90;;;;;;4961178;28;20043;-73
2022/01/24 12:26:18;;;;;;;26.48;14.57;;;2.10;99.90;;;;;;4960276;28;20705;-74
2022/01/24 12:28:59;;;;;;;;;;;2.10;99.90;;;;;;4967449;28;20030;-75
2022/01/24 12:31:45;;;;;;;27.92;13.27;;;2.20;99.90;;;;;;4972683;28;20460;-73
2022/01/24 12:34:15;;;;;;;28.98;15.35;;;2.20;99.90;;;;;;4959021;28;20660;-79
2022/01/24 12:36:47;;;;;;;29.70;14.38;;;2.30;99.90;;;;;;4967687;28;20019;-71
2022/01/24 12:39:14;;;;;;;26.58;14.43;;;2.30;99.90;;;;;;4961060;28;20034;-73
2022/01/24 12:41:48;;;;;;;28.75;13.63;;;2.20;99.90;;;;;;4964186;28;20026;-72
2022/01/24 12:47:06;;;;;;;33.35;15.23;;;2.10;99.90;;;;;;4959138;28;20038;-73
2022/01/24 12:49:33;;;;;;;25.23;13.93;;;2.20;99.90;;;;;;4962350;28;20132;-72
2022/01/24 12:52:00;;;;;;;;;;;2.30;99.90;;;;;;4956110;28;20025;-73
2022/01/24 12:54:31;;;;;;;29.77;14.68;;;2.30;99.90;;;;;;4960254;28;19965;-74
2022/01/24 12:57:02;;;;;;;26.77;13.85;;;2.30;99.90;;;;;;4956012;28;20066;-73
2022/01/24 12:59:28;;;;;;;26.00;14.25;;;2.40;99.90;;;;;;4959635;28;20026;-74
2022/01/24 13:01:57;;;;;;;31.57;15.27;;;2.50;99.90;;;;;;4966763;28;20034;-77
2022/01/24 13:04:37;;;;;;;23.25;12.85;;;2.50;99.90;;;;;;4958383;28;20022;-74
2022/01/24 13:07:08;;;;;;;24.38;14.80;;;2.50;99.90;;;;;;4961350;28;20113;-78
2022/01/24 13:09:35;;;;;;;28.88;14.52;;;2.50;99.90;;;;;;4963574;28;20027;-76
2022/01/24 13:12:07;;;;;;;25.27;13.23;;;2.50;99.90;;;;;;4962076;28;20042;-74
2022/01/24 13:14:48;;;;;;;28.27;15.20;;;2.50;99.90;;;;;;4961105;28;20069;-75
2022/01/24 13:20:56;;;;;;;28.95;14.63;;;2.50;99.90;;;;;;4959728;28;20380;-76
2022/01/24 13:23:23;;;;;;;26.95;14.35;;;2.40;99.90;;;;;;4960855;28;20541;-74
2022/01/24 13:25:49;;;;;;;28.50;14.40;;;2.50;99.90;;;;;;4962012;28;20566;-73
2022/01/24 13:28:19;;;;;;;27.17;14.70;;;2.50;99.90;;;;;;4952696;28;20046;-75
2022/01/24 13:30:58;;;;;;;28.60;15.20;;;2.50;99.90;;;;;;4960934;28;20440;-77
2022/01/24 13:33:25;;;;;;;26.65;13.75;;;2.70;99.90;;;;;;4964820;28;20551;-80
2022/01/24 13:35:56;;;;;;;28.40;14.45;;;2.60;99.90;;;;;;4959061;28;20026;-72
2022/01/24 13:38:26;;;;;;;28.90;14.68;;;2.60;99.90;;;;;;4965771;28;20467;-76
2022/01/24 13:41:04;;;;;;;25.08;12.82;;;2.70;99.90;;;;;;4955173;28;20030;-75
2022/01/24 13:43:44;;;;;;;25.30;14.50;;;2.70;99.90;;;;;;4959669;28;20027;-74
2022/01/24 13:46:25;;;;;;;30.33;15.25;;;2.70;99.90;;;;;;4954683;28;20038;-75
2022/01/24 13:49:00;;;;;;;30.13;15.73;;;2.70;99.90;;;;;;4960794;28;20027;-72
2022/01/24 13:51:33;;;;;;;24.67;14.38;;;2.60;99.90;;;;;;4958049;28;20096;-79
2022/01/24 13:54:00;;;;;;;28.05;15.68;;;2.50;99.90;;;;;;4955954;28;20633;-74
2022/01/24 13:56:36;;;;;;;26.50;14.45;;;2.50;99.90;;;;;;4958141;28;20768;-74
2022/01/24 13:59:06;;;;;;;27.58;14.88;;;2.50;99.90;;;;;;4955912;28;20492;-73
2022/01/24 14:01:33;;;;;;;27.38;13.55;;;2.60;99.90;;;;;;4966641;28;20030;-75
2022/01/24 14:04:04;;;;;;;26.20;14.13;;;2.60;99.90;;;;;;4959894;28;20026;-73
2022/01/24 14:06:36;;;;;;;27.77;14.15;;;2.60;99.90;;;;;;4956466;28;20019;-72
2022/01/24 14:09:09;;;;;;;25.27;14.57;;;2.50;99.90;;;;;;4962127;28;20050;-74
2022/01/24 14:11:49;;;;;;;29.15;15.07;;;2.60;99.90;;;;;;4963028;28;20033;-74
2022/01/24 14:14:20;;;;;;;29.63;14.90;;;2.60;99.90;;;;;;4962885;28;20039;-78
2022/01/24 14:16:58;;;;;;;31.10;15.25;;;2.60;99.90;;;;;;4964179;28;20027;-75
2022/01/24 14:19:29;;;;;;;31.08;16.00;;;2.60;99.90;;;;;;4962969;28;20019;-83
2022/01/24 14:22:14;;;;;;;31.30;16.30;;;2.60;99.90;;;;;;4958171;28;20130;-72
2022/01/24 14:24:49;;;;;;;35.25;16.63;;;2.60;99.90;;;;;;4966699;28;20058;-75
2022/01/24 14:27:47;;;;;;;29.75;17.35;;;2.60;99.90;;;;;;4963267;28;20030;-73
2022/01/24 14:30:20;;;;;;;32.97;17.77;;;2.60;99.90;;;;;;4968289;28;20057;-74
2022/01/24 14:33:12;;;;;;;33.65;16.15;;;2.50;99.90;;;;;;4978333;28;20029;-79
2022/01/24 14:36:00;;;;;;;38.00;18.70;;;2.50;99.90;;;;;;4969413;28;20049;-77
2022/01/24 14:38:32;;;;;;;34.58;17.00;;;2.60;99.90;;;;;;4971524;28;20112;-72
2022/01/24 14:41:10;;;;;;;35.63;18.05;;;2.50;99.90;;;;;;4962099;28;20050;-74
2022/01/24 14:46:29;;;;;;;34.13;17.52;;;2.20;99.90;;;;;;4970233;28;20604;-72
2022/01/24 14:48:58;;;;;;;35.40;18.02;;;2.10;99.90;;;;;;4968098;28;20506;-73
2022/01/24 14:51:28;;;;;;;40.55;18.48;;;2.10;99.90;;;;;;4966615;28;20097;-72
2022/01/24 14:53:57;;;;;;;39.78;18.58;;;2.10;99.90;;;;;;4962874;28;20172;-73
2022/01/24 14:56:24;;;;;;;34.30;17.60;;;2.10;99.90;;;;;;4965617;28;20037;-71
2022/01/24 14:58:50;;;;;;;33.85;17.13;;;1.90;99.90;;;;;;4972685;28;20113;-69
2022/01/24 15:01:17;;;;;;;36.72;18.05;;;1.80;99.90;;;;;;4962013;28;20218;-73